createdAt,value
2023-09-03T00:01:22.045Z,17.62
2023-09-03T00:03:50.384Z,17.67
2023-09-03T00:06:18.616Z,17.58
2023-09-03T00:08:50.126Z,17.51
2023-09-03T00:11:18.794Z,17.46
2023-09-03T00:13:46.874Z,17.38
2023-09-03T00:16:15.561Z,17.31
2023-09-03T00:18:43.784Z,17.26
2023-09-03T00:21:12.771Z,17.22
2023-09-03T00:23:41.394Z,17.23
2023-09-03T00:26:18.429Z,17.17
2023-09-03T00:28:51.779Z,17.17
2023-09-03T00:31:20.054Z,17.20
2023-09-03T00:33:48.746Z,17.18
2023-09-03T00:36:17.639Z,17.21
2023-09-03T00:38:50.844Z,17.20
2023-09-03T00:41:20.697Z,17.27
2023-09-03T00:43:49.145Z,17.36
2023-09-03T00:46:17.343Z,17.36
2023-09-03T00:48:45.743Z,17.32
2023-09-03T00:51:14.785Z,17.43
2023-09-03T00:53:49.462Z,17.40
2023-09-03T00:56:38.465Z,17.32
2023-09-03T00:59:07.791Z,17.22
2023-09-03T01:01:37.241Z,17.15
2023-09-03T01:04:07.238Z,17.08
2023-09-03T01:06:35.377Z,16.92
2023-09-03T01:09:03.976Z,16.94
2023-09-03T01:11:39.703Z,16.94
2023-09-03T01:14:22.229Z,16.90
2023-09-03T01:16:56.254Z,16.91
2023-09-03T01:19:46.731Z,16.93
2023-09-03T01:22:29.055Z,16.86
2023-09-03T01:25:11.474Z,16.87
2023-09-03T01:27:49.464Z,16.83
2023-09-03T01:30:20.084Z,16.78
2023-09-03T01:32:49.823Z,16.88
2023-09-03T01:35:20.469Z,16.90
2023-09-03T01:37:49.002Z,16.82
2023-09-03T01:40:16.999Z,16.72
2023-09-03T01:42:45.755Z,16.78
2023-09-03T01:45:13.876Z,16.89
2023-09-03T01:47:50.944Z,16.68
2023-09-03T01:50:26.391Z,16.61
2023-09-03T01:53:03.738Z,16.44
2023-09-03T01:55:38.133Z,16.34
2023-09-03T01:58:09.544Z,16.33
2023-09-03T02:00:39.344Z,16.40
2023-09-03T02:03:12.403Z,16.35
2023-09-03T02:05:40.613Z,16.35
2023-09-03T02:08:08.994Z,16.25
2023-09-03T02:10:37.039Z,16.37
2023-09-03T02:13:06.173Z,16.31
2023-09-03T02:15:34.455Z,16.55
2023-09-03T02:18:02.556Z,16.61
2023-09-03T02:20:32.016Z,16.48
2023-09-03T02:23:00.090Z,16.39
2023-09-03T02:25:28.541Z,16.40
2023-09-03T02:27:56.956Z,16.49
2023-09-03T02:30:25.149Z,16.46
2023-09-03T02:32:53.675Z,16.49
2023-09-03T02:35:21.852Z,16.50
2023-09-03T02:37:51.610Z,16.61
2023-09-03T02:40:21.933Z,16.50
2023-09-03T02:42:50.095Z,16.45
2023-09-03T02:45:18.592Z,16.58
2023-09-03T02:47:47.382Z,16.45
2023-09-03T02:50:15.422Z,16.44
2023-09-03T02:52:44.187Z,16.39
2023-09-03T02:55:14.910Z,16.49
2023-09-03T02:57:43.581Z,16.45
2023-09-03T03:00:12.798Z,16.45
2023-09-03T03:02:42.684Z,16.39
2023-09-03T03:05:11.505Z,16.41
2023-09-03T03:07:41.924Z,16.32
2023-09-03T03:10:10.656Z,16.28
2023-09-03T03:12:40.588Z,16.22
2023-09-03T03:15:10.712Z,16.24
2023-09-03T03:17:39.686Z,16.44
2023-09-03T03:20:10.682Z,16.34
2023-09-03T03:22:38.878Z,16.21
2023-09-03T03:25:08.138Z,16.21
2023-09-03T03:27:38.915Z,16.26
2023-09-03T03:30:10.590Z,16.19
2023-09-03T03:32:40.121Z,16.35
2023-09-03T03:35:10.105Z,16.30
2023-09-03T03:37:40.478Z,16.36
2023-09-03T03:40:10.216Z,16.57
2023-09-03T03:42:39.176Z,16.39
2023-09-03T03:45:08.240Z,16.29
2023-09-03T03:47:39.447Z,16.36
2023-09-03T03:52:55.203Z,16.38
2023-09-03T03:55:23.728Z,16.30
2023-09-03T04:00:23.856Z,16.37
2023-09-03T04:02:52.083Z,16.31
2023-09-03T04:05:20.486Z,16.52
2023-09-03T04:08:07.894Z,16.42
2023-09-03T04:10:36.021Z,16.37
2023-09-03T04:13:04.128Z,16.29
2023-09-03T04:15:33.824Z,16.24
2023-09-03T04:18:02.821Z,16.38
2023-09-03T04:20:31.026Z,16.37
2023-09-03T04:23:02.574Z,16.32
2023-09-03T04:25:30.990Z,16.35
2023-09-03T04:27:59.526Z,16.31
2023-09-03T04:30:28.245Z,16.31
2023-09-03T04:32:58.279Z,16.28
2023-09-03T04:35:27.091Z,16.34
2023-09-03T04:37:55.525Z,16.34
2023-09-03T04:40:23.980Z,16.39
2023-09-03T04:42:52.787Z,16.39
2023-09-03T04:45:21.035Z,16.37
2023-09-03T04:47:49.791Z,16.34
2023-09-03T04:50:19.697Z,16.08
2023-09-03T04:52:49.862Z,16.26
2023-09-03T04:55:19.666Z,16.26
2023-09-03T04:57:47.783Z,16.24
2023-09-03T05:00:16.953Z,16.25
2023-09-03T05:02:45.390Z,16.27
2023-09-03T05:05:14.292Z,16.23
2023-09-03T05:07:44.157Z,16.30
2023-09-03T05:10:13.154Z,16.22
2023-09-03T05:12:43.073Z,16.20
2023-09-03T05:15:14.262Z,16.23
2023-09-03T05:17:43.598Z,16.26
2023-09-03T05:20:12.257Z,16.33
2023-09-03T05:22:40.863Z,16.34
2023-09-03T05:25:10.946Z,16.38
2023-09-03T05:27:39.858Z,16.43
2023-09-03T05:30:10.554Z,16.51
2023-09-03T05:32:40.248Z,16.52
2023-09-03T05:35:09.656Z,16.64
2023-09-03T05:37:38.024Z,16.63
2023-09-03T05:40:07.733Z,16.66
2023-09-03T05:42:37.321Z,16.77
2023-09-03T05:45:06.731Z,16.83
2023-09-03T05:47:35.209Z,16.99
2023-09-03T05:50:06.800Z,17.02
2023-09-03T05:52:35.652Z,17.16
2023-09-03T05:55:06.284Z,17.27
2023-09-03T05:57:35.046Z,17.43
2023-09-03T06:00:06.925Z,17.50
2023-09-03T06:02:35.631Z,17.64
2023-09-03T06:05:05.615Z,17.67
2023-09-03T06:07:34.129Z,17.86
2023-09-03T06:10:02.108Z,18.03
2023-09-03T06:12:30.497Z,18.13
2023-09-03T06:14:58.639Z,18.13
2023-09-03T06:17:28.020Z,18.22
2023-09-03T06:19:56.354Z,18.37
2023-09-03T06:22:24.351Z,18.39
2023-09-03T06:24:52.509Z,18.36
2023-09-03T06:27:20.829Z,18.63
2023-09-03T06:29:48.842Z,18.69
2023-09-03T06:32:16.909Z,18.73
2023-09-03T06:34:46.572Z,18.69
2023-09-03T06:37:14.597Z,18.81
2023-09-03T06:39:43.042Z,18.91
2023-09-03T06:42:11.661Z,19.20
2023-09-03T06:44:39.871Z,19.41
2023-09-03T06:47:08.014Z,19.57
2023-09-03T06:49:36.447Z,19.82
2023-09-03T06:52:06.501Z,19.92
2023-09-03T06:54:34.589Z,19.99
2023-09-03T06:57:05.958Z,20.23
2023-09-03T06:59:42.073Z,20.47
2023-09-03T07:02:10.896Z,20.04
2023-09-03T07:04:38.979Z,20.36
2023-09-03T07:07:09.632Z,20.39
2023-09-03T07:09:37.822Z,20.55
2023-09-03T07:12:06.923Z,20.61
2023-09-03T07:14:35.714Z,20.54
2023-09-03T07:17:05.371Z,20.78
2023-09-03T07:19:33.681Z,20.83
2023-09-03T07:22:02.381Z,20.88
2023-09-03T07:24:31.870Z,20.84
2023-09-03T07:27:00.994Z,20.59
2023-09-03T07:29:29.153Z,20.31
2023-09-03T07:31:57.192Z,20.22
2023-09-03T07:34:25.601Z,20.49
2023-09-03T07:36:53.714Z,20.52
2023-09-03T07:39:22.175Z,20.60
2023-09-03T07:41:51.594Z,20.81
2023-09-03T07:44:20.067Z,21.23
2023-09-03T07:46:48.512Z,21.88
2023-09-03T07:49:17.648Z,22.64
2023-09-03T07:51:46.125Z,22.19
2023-09-03T07:54:16.676Z,22.13
2023-09-03T07:56:45.875Z,22.55
2023-09-03T07:59:15.676Z,22.43
2023-09-03T08:01:43.961Z,22.10
2023-09-03T08:04:12.783Z,22.12
2023-09-03T08:06:40.820Z,21.86
2023-09-03T08:09:09.842Z,21.76
2023-09-03T08:11:38.326Z,21.66
2023-09-03T08:14:07.416Z,22.15
2023-09-03T08:16:37.462Z,22.37
2023-09-03T08:19:05.620Z,22.35
2023-09-03T08:21:34.389Z,22.18
2023-09-03T08:24:02.886Z,22.63
2023-09-03T08:26:30.990Z,22.81
2023-09-03T08:28:59.750Z,22.52
2023-09-03T08:31:27.883Z,22.43
2023-09-03T08:33:58.173Z,22.21
2023-09-03T08:36:26.775Z,22.40
2023-09-03T08:38:55.385Z,22.34
2023-09-03T08:41:24.968Z,22.23
2023-09-03T08:43:57.092Z,22.56
2023-09-03T08:46:27.785Z,22.83
2023-09-03T08:48:56.045Z,23.08
2023-09-03T08:51:27.201Z,23.21
2023-09-03T08:53:57.897Z,22.72
2023-09-03T08:56:26.882Z,23.21
2023-09-03T09:01:24.154Z,23.45
2023-09-03T09:03:56.011Z,23.67
2023-09-03T09:06:24.726Z,23.92
2023-09-03T09:08:54.989Z,24.37
2023-09-03T09:11:24.124Z,25.51
2023-09-03T09:13:58.101Z,25.89
2023-09-03T09:16:27.672Z,26.43
2023-09-03T09:18:57.413Z,27.25
2023-09-03T09:21:26.322Z,28.02
2023-09-03T09:24:02.411Z,28.51
2023-09-03T09:26:32.754Z,28.45
2023-09-03T09:29:02.153Z,28.12
2023-09-03T09:31:33.544Z,27.15
2023-09-03T09:34:10.560Z,27.25
2023-09-03T09:36:39.459Z,26.47
2023-09-03T09:39:09.045Z,26.89
2023-09-03T09:41:40.054Z,27.36
2023-09-03T09:44:10.858Z,27.36
2023-09-03T09:46:41.725Z,27.55
2023-09-03T09:49:09.990Z,27.85
2023-09-03T09:51:38.741Z,28.26
2023-09-03T09:54:07.691Z,28.19
2023-09-03T09:56:37.182Z,27.54
2023-09-03T09:59:06.108Z,27.99
2023-09-03T10:01:54.416Z,28.06
2023-09-03T10:04:28.104Z,27.83
2023-09-03T10:06:57.976Z,28.16
2023-09-03T10:09:26.931Z,28.59
2023-09-03T10:11:56.030Z,29.25
2023-09-03T10:14:24.229Z,29.66
2023-09-03T10:16:57.770Z,30.38
2023-09-03T10:19:29.277Z,29.79
2023-09-03T10:22:04.140Z,29.41
2023-09-03T10:24:33.250Z,29.62
2023-09-03T10:27:05.891Z,30.06
2023-09-03T10:29:37.637Z,30.25
2023-09-03T10:32:10.473Z,29.88
2023-09-03T10:34:39.430Z,29.89
2023-09-03T10:37:08.893Z,30.62
2023-09-03T10:39:39.175Z,30.92
2023-09-03T10:42:33.072Z,30.31
2023-09-03T10:45:03.969Z,30.67
2023-09-03T10:47:33.772Z,29.97
2023-09-03T10:50:02.502Z,29.41
2023-09-03T10:52:41.629Z,29.10
2023-09-03T10:55:15.086Z,29.54
2023-09-03T10:57:45.037Z,29.37
2023-09-03T11:00:18.271Z,29.48
2023-09-03T11:02:50.283Z,29.71
2023-09-03T11:05:22.273Z,29.87
2023-09-03T11:07:54.748Z,29.74
2023-09-03T11:10:42.660Z,29.99
2023-09-03T11:13:30.913Z,31.16
2023-09-03T11:16:05.016Z,30.40
2023-09-03T11:18:34.743Z,29.80
2023-09-03T11:21:03.789Z,29.66
2023-09-03T11:23:36.204Z,28.95
2023-09-03T11:26:06.943Z,29.16
2023-09-03T11:28:39.525Z,28.85
2023-09-03T11:31:08.151Z,27.78
2023-09-03T11:33:37.716Z,27.92
2023-09-03T11:36:06.575Z,28.88
2023-09-03T11:38:36.048Z,29.48
2023-09-03T11:41:05.522Z,29.28
2023-09-03T11:43:38.145Z,29.46
2023-09-03T11:46:14.579Z,29.44
2023-09-03T11:48:50.814Z,29.43
2023-09-03T11:51:28.681Z,29.43
2023-09-03T11:53:57.772Z,29.79
2023-09-03T11:56:28.843Z,29.69
2023-09-03T11:59:01.639Z,29.54
2023-09-03T12:01:29.848Z,29.83
2023-09-03T12:04:00.186Z,28.89
2023-09-03T12:06:29.633Z,29.17
2023-09-03T12:08:58.342Z,28.65
2023-09-03T12:11:31.378Z,29.04
2023-09-03T12:14:00.057Z,29.56
2023-09-03T12:16:29.955Z,29.16
2023-09-03T12:19:01.275Z,28.81
2023-09-03T12:21:34.230Z,28.16
2023-09-03T12:24:03.592Z,27.18
2023-09-03T12:26:31.827Z,27.37
2023-09-03T12:29:02.275Z,27.50
2023-09-03T12:31:40.900Z,26.99
2023-09-03T12:34:11.137Z,27.20
2023-09-03T12:36:58.095Z,26.64
2023-09-03T12:39:31.523Z,27.06
2023-09-03T12:42:00.220Z,27.52
2023-09-03T12:44:28.963Z,26.99
2023-09-03T12:46:58.200Z,27.09
2023-09-03T12:49:28.518Z,26.66
2023-09-03T12:51:57.918Z,26.68
2023-09-03T12:54:27.502Z,26.38
2023-09-03T12:56:56.110Z,26.56
2023-09-03T12:59:24.571Z,26.68
2023-09-03T13:01:52.708Z,27.08
2023-09-03T13:04:21.498Z,26.66
2023-09-03T13:06:51.083Z,26.43
2023-09-03T13:09:19.233Z,26.33
2023-09-03T13:11:48.949Z,26.32
2023-09-03T13:14:17.051Z,26.30
2023-09-03T13:16:45.487Z,26.42
2023-09-03T13:19:13.555Z,26.11
2023-09-03T13:21:42.005Z,26.27
2023-09-03T13:24:12.176Z,26.10
2023-09-03T13:26:40.659Z,26.00
2023-09-03T13:29:09.460Z,26.26
2023-09-03T13:31:38.017Z,26.38
2023-09-03T13:34:07.959Z,26.23
2023-09-03T13:36:36.094Z,25.99
2023-09-03T13:39:04.622Z,25.97
2023-09-03T13:41:34.429Z,26.11
2023-09-03T13:44:02.668Z,26.26
2023-09-03T13:46:33.030Z,25.96
2023-09-03T13:49:01.224Z,26.03
2023-09-03T13:51:29.593Z,25.83
2023-09-03T13:53:58.227Z,25.86
2023-09-03T13:56:26.798Z,25.86
2023-09-03T14:02:27.046Z,25.74
2023-09-03T14:04:55.241Z,25.72
2023-09-03T14:07:23.591Z,25.82
2023-09-03T14:09:54.655Z,25.86
2023-09-03T14:12:24.102Z,26.05
2023-09-03T14:14:52.234Z,26.07
2023-09-03T14:17:20.897Z,25.82
2023-09-03T14:19:51.042Z,25.63
2023-09-03T14:22:19.237Z,25.42
2023-09-03T14:24:47.818Z,25.70
2023-09-03T14:27:16.415Z,25.72
2023-09-03T14:29:44.485Z,25.94
2023-09-03T14:32:12.583Z,25.88
2023-09-03T14:34:42.301Z,25.73
2023-09-03T14:37:11.957Z,25.98
2023-09-03T14:39:40.063Z,25.95
2023-09-03T14:42:08.216Z,25.67
2023-09-03T14:44:36.721Z,25.81
2023-09-03T14:47:05.816Z,25.59
2023-09-03T14:49:40.266Z,25.49
2023-09-03T14:52:12.655Z,25.44
2023-09-03T14:54:41.052Z,25.26
2023-09-03T14:57:09.388Z,25.19
2023-09-03T14:59:38.383Z,25.19
2023-09-03T15:02:06.659Z,25.27
2023-09-03T15:04:34.811Z,25.11
2023-09-03T15:07:03.109Z,25.36
2023-09-03T15:09:32.645Z,25.44
2023-09-03T15:12:00.699Z,25.29
2023-09-03T15:14:30.090Z,25.39
2023-09-03T15:16:58.362Z,25.22
2023-09-03T15:19:26.362Z,25.20
2023-09-03T15:21:54.981Z,25.08
2023-09-03T15:24:23.148Z,25.10
2023-09-03T15:26:52.553Z,25.05
2023-09-03T15:29:20.688Z,24.91
2023-09-03T15:31:49.055Z,24.86
2023-09-03T15:34:17.335Z,24.78
2023-09-03T15:36:45.447Z,24.76
2023-09-03T15:39:13.588Z,24.61
2023-09-03T15:41:41.807Z,24.42
2023-09-03T15:44:11.902Z,24.24
2023-09-03T15:46:40.120Z,24.08
2023-09-03T15:49:10.269Z,24.00
2023-09-03T15:51:40.239Z,24.06
2023-09-03T15:54:08.578Z,24.08
2023-09-03T15:56:36.943Z,23.97
2023-09-03T15:59:05.197Z,23.89
2023-09-03T16:01:34.866Z,23.88
2023-09-03T16:04:03.395Z,23.71
2023-09-03T16:06:32.006Z,23.74
2023-09-03T16:09:00.692Z,23.64
2023-09-03T16:11:29.049Z,23.63
2023-09-03T16:13:57.375Z,23.53
2023-09-03T16:16:28.685Z,23.50
2023-09-03T16:18:59.742Z,23.44
2023-09-03T16:21:27.857Z,23.40
2023-09-03T16:23:56.097Z,23.40
2023-09-03T16:26:24.419Z,23.39
2023-09-03T16:28:52.516Z,23.36
2023-09-03T16:31:20.718Z,23.30
2023-09-03T16:33:48.789Z,23.26
2023-09-03T16:36:19.137Z,23.13
2023-09-03T16:38:47.234Z,23.11
2023-09-03T16:41:15.288Z,23.03
2023-09-03T16:43:44.005Z,23.00
2023-09-03T16:46:13.906Z,22.89
2023-09-03T16:48:42.079Z,22.83
2023-09-03T16:51:10.434Z,22.79
2023-09-03T16:53:40.450Z,22.74
2023-09-03T16:56:09.867Z,22.69
2023-09-03T16:58:37.963Z,22.64
2023-09-03T17:01:06.494Z,22.58
2023-09-03T17:03:34.816Z,22.50
2023-09-03T17:06:03.370Z,22.41
2023-09-03T17:08:31.801Z,22.37
2023-09-03T17:11:03.394Z,22.30
2023-09-03T17:13:32.487Z,22.30
2023-09-03T17:16:00.729Z,22.19
2023-09-03T17:18:29.217Z,22.10
2023-09-03T17:20:57.715Z,22.06
2023-09-03T17:23:25.993Z,22.03
2023-09-03T17:25:54.045Z,21.93
2023-09-03T17:28:23.964Z,21.83
2023-09-03T17:30:52.438Z,21.71
2023-09-03T17:33:20.692Z,21.68
2023-09-03T17:35:49.009Z,21.62
2023-09-03T17:38:19.002Z,21.49
2023-09-03T17:40:47.323Z,21.39
2023-09-03T17:43:15.605Z,21.33
2023-09-03T17:45:45.511Z,21.03
2023-09-03T17:48:13.927Z,21.21
2023-09-03T17:50:42.533Z,21.00
2023-09-03T17:53:10.742Z,20.88
2023-09-03T17:55:39.799Z,20.75
2023-09-03T17:58:08.460Z,20.63
2023-09-03T18:00:36.712Z,20.54
2023-09-03T18:03:06.816Z,20.48
2023-09-03T18:05:35.678Z,20.40
2023-09-03T18:08:04.939Z,20.29
2023-09-03T18:10:34.969Z,20.20
2023-09-03T18:13:07.205Z,20.17
2023-09-03T18:15:35.628Z,20.02
2023-09-03T18:18:04.112Z,20.01
2023-09-03T18:20:33.806Z,19.99
2023-09-03T18:23:01.935Z,19.97
2023-09-03T18:25:30.376Z,19.95
2023-09-03T18:27:58.519Z,19.93
2023-09-03T18:30:26.667Z,19.89
2023-09-03T18:32:55.389Z,19.94
2023-09-03T18:35:23.664Z,19.95
2023-09-03T18:37:53.199Z,19.90
2023-09-03T18:40:21.405Z,19.84
2023-09-03T18:42:49.591Z,19.86
2023-09-03T18:45:18.265Z,19.86
2023-09-03T18:47:46.790Z,19.83
2023-09-03T18:50:15.178Z,19.72
2023-09-03T18:52:43.195Z,19.74
2023-09-03T18:55:12.877Z,19.68
2023-09-03T18:57:41.447Z,19.66
2023-09-03T19:03:24.802Z,19.62
2023-09-03T19:05:53.644Z,19.56
2023-09-03T19:08:21.906Z,19.55
2023-09-03T19:10:56.383Z,19.56
2023-09-03T19:13:24.799Z,19.54
2023-09-03T19:15:55.228Z,19.52
2023-09-03T19:18:25.706Z,19.54
2023-09-03T19:20:55.576Z,19.39
2023-09-03T19:23:23.971Z,19.38
2023-09-03T19:25:54.000Z,19.30
2023-09-03T19:28:22.923Z,19.25
2023-09-03T19:30:53.089Z,19.15
2023-09-03T19:33:22.109Z,19.09
2023-09-03T19:35:58.011Z,18.96
2023-09-03T19:38:27.229Z,18.85
2023-09-03T19:40:55.785Z,18.85
2023-09-03T19:43:24.963Z,18.90
2023-09-03T19:45:54.546Z,18.91
2023-09-03T19:48:24.706Z,18.86
2023-09-03T19:50:55.343Z,18.92
2023-09-03T19:53:23.668Z,18.86
2023-09-03T19:55:51.800Z,18.85
2023-09-03T19:58:21.106Z,18.76
2023-09-03T20:00:50.816Z,18.62
2023-09-03T20:03:18.976Z,18.51
2023-09-03T20:05:58.939Z,18.51
2023-09-03T20:08:27.617Z,18.45
2023-09-03T20:10:57.441Z,18.39
2023-09-03T20:13:25.785Z,18.19
2023-09-03T20:15:58.640Z,18.39
2023-09-03T20:18:27.419Z,18.46
2023-09-03T20:20:55.609Z,18.48
2023-09-03T20:23:25.932Z,18.49
2023-09-03T20:26:01.042Z,18.44
2023-09-03T20:28:43.230Z,18.42
2023-09-03T20:31:12.621Z,18.33
2023-09-03T20:33:41.415Z,18.25
2023-09-03T20:36:09.726Z,18.24
2023-09-03T20:38:39.398Z,18.22
2023-09-03T20:41:07.910Z,18.09
2023-09-03T20:43:36.416Z,18.05
2023-09-03T20:46:04.836Z,17.98
2023-09-03T20:48:33.738Z,17.94
2023-09-03T20:51:03.294Z,17.93
2023-09-03T20:53:31.893Z,17.85
2023-09-03T20:56:01.646Z,17.77
2023-09-03T20:58:29.860Z,17.72
2023-09-03T21:00:58.196Z,17.48
2023-09-03T21:03:27.123Z,17.59
2023-09-03T21:05:56.439Z,17.49
2023-09-03T21:08:26.693Z,17.46
2023-09-03T21:10:58.850Z,17.34
2023-09-03T21:13:30.377Z,17.34
2023-09-03T21:15:59.992Z,17.21
2023-09-03T21:18:29.569Z,17.22
2023-09-03T21:21:03.557Z,17.15
2023-09-03T21:23:33.115Z,17.01
2023-09-03T21:26:03.082Z,16.92
2023-09-03T21:28:33.268Z,16.92
2023-09-03T21:31:01.517Z,16.82
2023-09-03T21:33:29.671Z,16.88
2023-09-03T21:35:58.605Z,16.86
2023-09-03T21:38:26.904Z,16.76
2023-09-03T21:40:55.217Z,16.72
2023-09-03T21:43:23.379Z,16.69
2023-09-03T21:45:52.895Z,16.63
2023-09-03T21:48:23.131Z,16.62
2023-09-03T21:50:59.797Z,16.54
2023-09-03T21:53:38.026Z,16.44
2023-09-03T21:56:06.953Z,16.45
2023-09-03T21:58:35.265Z,16.48
2023-09-03T22:01:04.839Z,16.36
2023-09-03T22:03:33.093Z,16.46
2023-09-03T22:06:03.181Z,16.41
2023-09-03T22:08:31.299Z,16.28
2023-09-03T22:10:59.473Z,16.32
2023-09-03T22:13:30.326Z,16.26
2023-09-03T22:15:59.053Z,16.13
2023-09-03T22:18:31.214Z,16.17
2023-09-03T22:21:02.734Z,16.18
2023-09-03T22:23:30.851Z,16.15
2023-09-03T22:26:01.711Z,16.15
2023-09-03T22:28:29.803Z,16.13
2023-09-03T22:30:58.002Z,16.06
2023-09-03T22:33:26.603Z,16.17
2023-09-03T22:35:56.465Z,16.16
2023-09-03T22:38:24.850Z,16.11
2023-09-03T22:40:53.313Z,16.07
2023-09-03T22:43:21.760Z,16.02
2023-09-03T22:45:49.968Z,15.96
2023-09-03T22:48:18.081Z,15.97
2023-09-03T22:50:47.169Z,15.92
2023-09-03T22:53:17.655Z,15.94
2023-09-03T22:55:46.032Z,15.91
2023-09-03T22:58:14.364Z,15.79
2023-09-03T23:00:42.915Z,15.77
2023-09-03T23:03:11.310Z,15.71
2023-09-03T23:05:39.586Z,15.74
2023-09-03T23:08:08.794Z,15.66
2023-09-03T23:10:40.529Z,15.68
2023-09-03T23:13:08.592Z,15.67
2023-09-03T23:15:36.823Z,15.67
2023-09-03T23:18:06.468Z,15.54
2023-09-03T23:20:34.667Z,15.58
2023-09-03T23:23:03.023Z,15.46
2023-09-03T23:25:31.137Z,15.37
2023-09-03T23:28:00.524Z,15.29
2023-09-03T23:30:28.628Z,15.24
2023-09-03T23:32:56.780Z,15.28
2023-09-03T23:35:24.939Z,15.18
2023-09-03T23:37:53.066Z,15.14
2023-09-03T23:40:21.229Z,15.10
2023-09-03T23:42:49.305Z,15.20
2023-09-03T23:45:20.033Z,15.06
2023-09-03T23:47:48.245Z,15.03
2023-09-03T23:50:16.501Z,15.03
2023-09-03T23:52:44.601Z,15.23
2023-09-03T23:55:12.792Z,15.10
2023-09-03T23:57:40.906Z,15.02
